Time;durP1;ratioP1;P1;durP2;ratioP2;P2;SDS_P1;SDS_P2;PMS_P1;PMS_P2;Temp;Humidity;BMP_temperature;BMP_pressure;BME280_temperature;BME280_humidity;BME280_pressure;Samples;Min_cycle;Max_cycle;Signal;HPM_P1;HPM_P2
2023/06/27 00:01:23;;;;;;;3.20;3.00;;;27.50;49.60;;;;;;4944911;28;20426;-90
2023/06/27 00:03:51;;;;;;;3.40;3.13;;;27.50;49.70;;;;;;4944651;28;20574;-89
2023/06/27 00:06:21;;;;;;;3.63;3.33;;;27.40;49.70;;;;;;4960695;28;20533;-90
2023/06/27 00:08:47;;;;;;;3.60;3.30;;;27.40;49.70;;;;;;4945177;28;20504;-90
2023/06/27 00:11:14;;;;;;;3.47;3.17;;;27.40;49.80;;;;;;4944408;28;20489;-90
2023/06/27 00:13:41;;;;;;;3.30;3.00;;;27.40;49.90;;;;;;4960575;28;20414;-89
2023/06/27 00:16:12;;;;;;;3.40;3.10;;;27.40;49.90;;;;;;4960137;28;20495;-90
2023/06/27 00:18:39;;;;;;;3.47;3.27;;;27.40;50.00;;;;;;4945183;28;20418;-90
2023/06/27 00:21:06;;;;;;;3.37;3.13;;;27.30;50.00;;;;;;4960375;28;20885;-90
2023/06/27 00:23:34;;;;;;;3.30;3.10;;;27.30;50.10;;;;;;4974939;28;20409;-89
2023/06/27 00:26:03;;;;;;;3.53;3.20;;;27.30;50.20;;;;;;4960212;28;20426;-89
2023/06/27 00:28:32;;;;;;;4.00;3.70;;;27.30;50.20;;;;;;4944049;28;20473;-90
2023/06/27 00:30:58;;;;;;;5.37;3.50;;;27.30;50.30;;;;;;4944559;28;20430;-89
2023/06/27 00:33:24;;;;;;;3.23;3.03;;;27.30;50.30;;;;;;4944207;28;20458;-90
2023/06/27 00:35:50;;;;;;;3.10;2.90;;;27.30;50.40;;;;;;4945942;29;20501;-90
2023/06/27 00:38:16;;;;;;;5.57;3.70;;;27.20;50.40;;;;;;4931281;28;20488;-89
2023/06/27 00:40:42;;;;;;;4.00;3.30;;;27.20;50.40;;;;;;4934715;28;20495;-91
2023/06/27 00:43:08;;;;;;;3.53;3.27;;;27.20;50.40;;;;;;4950467;28;20433;-89
2023/06/27 00:45:34;;;;;;;3.00;2.80;;;27.20;50.50;;;;;;4934629;28;20458;-90
2023/06/27 00:48:00;;;;;;;3.07;2.87;;;27.20;50.50;;;;;;4966436;28;20488;-89
2023/06/27 00:50:27;;;;;;;3.40;3.07;;;27.10;50.50;;;;;;4950375;28;20465;-89
2023/06/27 00:52:55;;;;;;;4.10;3.70;;;27.10;50.50;;;;;;4982162;28;20504;-89
2023/06/27 00:55:21;;;;;;;3.23;3.03;;;27.10;50.50;;;;;;4950410;28;20876;-89
2023/06/27 00:57:48;;;;;;;3.73;3.30;;;27.10;50.60;;;;;;4967033;28;20820;-90
2023/06/27 01:00:17;;;;;;;3.23;3.00;;;27.10;50.60;;;;;;4985991;28;20759;-90
2023/06/27 01:02:45;;;;;;;4.17;3.50;;;27.00;50.60;;;;;;4973193;28;20494;-89
2023/06/27 01:05:13;;;;;;;3.17;2.97;;;27.00;50.60;;;;;;5005319;28;20412;-90
2023/06/27 01:07:56;;;;;;;2.83;2.63;;;27.00;50.70;;;;;;4972908;28;20459;-89
2023/06/27 01:10:37;;;;;;;3.60;3.30;;;27.00;50.70;;;;;;4972705;28;20867;-90
2023/06/27 01:13:21;;;;;;;4.33;2.77;;;27.00;51.30;;;;;;4949540;28;20477;-91
2023/06/27 01:15:48;;;;;;;3.30;3.00;;;27.00;50.80;;;;;;4945526;28;20544;-88
2023/06/27 01:18:19;;;;;;;3.80;3.40;;;26.90;50.80;;;;;;4984703;28;20465;-90
2023/06/27 01:20:45;;;;;;;3.70;3.50;;;26.90;50.80;;;;;;4968560;28;20452;-89
2023/06/27 01:23:29;;;;;;;3.93;3.60;;;26.90;50.80;;;;;;4952795;28;20886;-89
2023/06/27 01:26:21;;;;;;;4.40;3.03;;;26.90;50.80;;;;;;4952570;28;20523;-89
2023/06/27 01:28:47;;;;;;;3.37;3.07;;;26.80;50.80;;;;;;4964529;28;20477;-90
2023/06/27 01:31:33;;;;;;;3.50;3.20;;;26.80;50.80;;;;;;4968508;28;20466;-89
2023/06/27 01:34:44;;;;;;;3.43;3.13;;;26.80;50.90;;;;;;4968562;28;20425;-90
2023/06/27 01:37:25;;;;;;;4.17;3.00;;;26.80;51.00;;;;;;4873887;29;20601;-90
2023/06/27 01:40:08;;;;;;;3.47;3.17;;;26.70;50.90;;;;;;4904817;29;20429;-90
2023/06/27 01:42:42;;;;;;;3.57;3.27;;;26.70;50.90;;;;;;4904722;29;20532;-89
2023/06/27 01:45:11;;;;;;;3.17;2.93;;;26.70;51.00;;;;;;4889044;29;20445;-90
2023/06/27 01:47:41;;;;;;;3.30;3.10;;;26.70;51.00;;;;;;4885259;29;20465;-91
2023/06/27 01:50:09;;;;;;;3.50;3.20;;;26.70;51.00;;;;;;4886018;29;20465;-90
2023/06/27 01:52:39;;;;;;;3.20;3.00;;;26.60;51.00;;;;;;4864887;29;20595;-88
2023/06/27 01:55:05;;;;;;;3.20;3.00;;;26.60;51.00;;;;;;4842495;29;20460;-89
2023/06/27 01:57:33;;;;;;;4.13;3.10;;;26.60;51.10;;;;;;4867398;29;20427;-90
2023/06/27 01:59:59;;;;;;;3.60;3.40;;;26.60;51.10;;;;;;4867444;29;20473;-90
2023/06/27 02:02:25;;;;;;;3.13;2.93;;;26.60;51.10;;;;;;4867243;29;20784;-90
2023/06/27 02:04:51;;;;;;;3.30;3.10;;;26.60;51.20;;;;;;4867302;29;20486;-90
2023/06/27 02:07:18;;;;;;;3.50;3.20;;;26.60;51.30;;;;;;4887998;29;20761;-89
2023/06/27 02:09:44;;;;;;;3.60;3.17;;;26.50;51.20;;;;;;4931172;28;20480;-90
2023/06/27 02:12:11;;;;;;;3.50;3.30;;;26.50;51.20;;;;;;4931141;28;20512;-90
2023/06/27 02:14:40;;;;;;;3.37;3.17;;;26.50;51.30;;;;;;4946544;28;20437;-90
2023/06/27 02:17:06;;;;;;;5.80;3.07;;;26.50;51.40;;;;;;4930663;28;20481;-91
2023/06/27 02:19:32;;;;;;;4.00;3.43;;;26.40;51.40;;;;;;4946745;28;20919;-90
2023/06/27 02:21:59;;;;;;;3.53;3.23;;;26.40;51.60;;;;;;4978535;28;20456;-90
2023/06/27 02:24:25;;;;;;;4.17;3.77;;;26.40;51.50;;;;;;4968994;28;20424;-90
2023/06/27 02:26:50;;;;;;;3.67;3.47;;;26.40;51.60;;;;;;4969145;28;20432;-90
2023/06/27 02:29:16;;;;;;;3.43;3.13;;;26.40;51.50;;;;;;4985546;28;20297;-90
2023/06/27 02:31:42;;;;;;;3.13;2.87;;;26.40;51.60;;;;;;4969045;28;20189;-90
2023/06/27 02:34:08;;;;;;;3.50;3.00;;;26.30;51.60;;;;;;4968608;28;20471;-90
2023/06/27 02:36:34;;;;;;;3.47;3.20;;;26.40;51.70;;;;;;4968691;28;20432;-90
2023/06/27 02:39:01;;;;;;;3.63;3.23;;;26.30;51.70;;;;;;4968667;28;20447;-90
2023/06/27 02:41:26;;;;;;;3.37;3.07;;;26.30;51.70;;;;;;4984609;28;20805;-90
2023/06/27 02:43:52;;;;;;;3.10;2.90;;;26.30;52.40;;;;;;4968555;28;20448;-90
2023/06/27 02:46:21;;;;;;;3.33;3.03;;;26.30;51.80;;;;;;4969406;28;20795;-91
2023/06/27 02:48:47;;;;;;;3.40;3.10;;;26.30;51.80;;;;;;4968599;28;20475;-90
2023/06/27 02:51:13;;;;;;;3.40;3.10;;;26.30;51.90;;;;;;4968181;28;20437;-91
2023/06/27 02:53:40;;;;;;;3.80;3.50;;;26.20;51.80;;;;;;4984615;28;20436;-89
2023/06/27 02:56:07;;;;;;;2.90;2.70;;;26.20;51.90;;;;;;4968207;28;20420;-90
2023/06/27 02:58:35;;;;;;;3.00;2.80;;;26.20;52.00;;;;;;4968114;28;20436;-89
2023/06/27 03:01:03;;;;;;;3.47;3.17;;;26.20;52.20;;;;;;4968678;28;20507;-91
2023/06/27 03:03:33;;;;;;;3.27;3.07;;;26.20;52.10;;;;;;4968311;28;20548;-90
2023/06/27 03:06:03;;;;;;;3.80;3.50;;;26.10;52.00;;;;;;4968153;28;20454;-90
2023/06/27 03:08:33;;;;;;;3.60;3.33;;;26.10;52.10;;;;;;4967949;28;20475;-90
2023/06/27 03:10:58;;;;;;;3.37;3.10;;;26.10;52.20;;;;;;4968039;28;20448;-90
2023/06/27 03:13:24;;;;;;;3.50;3.07;;;26.10;52.20;;;;;;4967933;28;20432;-89
2023/06/27 03:15:51;;;;;;;3.10;2.90;;;26.10;52.20;;;;;;4983832;28;20424;-90
2023/06/27 03:18:17;;;;;;;3.60;3.33;;;26.10;52.20;;;;;;4984396;28;20420;-90
2023/06/27 03:20:43;;;;;;;3.40;3.20;;;26.10;52.30;;;;;;4969698;28;20458;-90
2023/06/27 03:23:09;;;;;;;3.33;3.00;;;26.00;52.20;;;;;;4970184;28;20184;-90
2023/06/27 03:25:35;;;;;;;2.80;2.60;;;26.10;52.50;;;;;;4990304;28;20527;-90
2023/06/27 03:28:02;;;;;;;3.60;3.30;;;26.00;52.30;;;;;;4977708;28;20451;-90
2023/06/27 03:30:35;;;;;;;3.87;3.40;;;26.00;52.30;;;;;;4965727;28;20506;-90
2023/06/27 03:33:01;;;;;;;3.93;3.63;;;26.00;52.30;;;;;;4950004;28;20594;-90
2023/06/27 03:35:28;;;;;;;3.27;3.07;;;26.00;52.30;;;;;;4965537;28;20933;-89
2023/06/27 03:37:54;;;;;;;3.50;3.30;;;26.00;52.40;;;;;;4968894;28;20452;-90
2023/06/27 03:40:22;;;;;;;3.30;3.00;;;25.90;52.40;;;;;;4940434;28;20195;-90
2023/06/27 03:42:48;;;;;;;3.27;3.00;;;25.90;52.40;;;;;;4910089;29;20465;-90
2023/06/27 03:45:14;;;;;;;4.00;3.70;;;25.90;52.40;;;;;;4893697;29;20934;-90
2023/06/27 03:47:40;;;;;;;4.20;3.37;;;25.90;52.50;;;;;;4923764;29;20188;-90
2023/06/27 03:50:06;;;;;;;3.67;3.37;;;25.90;52.50;;;;;;4937614;29;21005;-90
2023/06/27 03:52:32;;;;;;;4.00;3.13;;;25.80;52.50;;;;;;4922133;29;20434;-90
2023/06/27 03:54:58;;;;;;;3.50;3.20;;;25.80;52.50;;;;;;4905916;29;20816;-90
2023/06/27 03:57:26;;;;;;;3.30;3.10;;;25.80;52.50;;;;;;4890763;29;20237;-89
2023/06/27 03:59:52;;;;;;;4.10;3.63;;;25.80;52.70;;;;;;4890524;29;20520;-90
2023/06/27 04:02:18;;;;;;;3.37;3.17;;;25.80;53.00;;;;;;4924721;28;20191;-90
2023/06/27 04:04:44;;;;;;;3.30;3.10;;;25.80;52.70;;;;;;4933761;28;20556;-90
2023/06/27 04:07:10;;;;;;;5.03;3.53;;;25.80;52.70;;;;;;4929282;28;20446;-91
2023/06/27 04:09:36;;;;;;;3.17;2.97;;;25.80;52.70;;;;;;4928425;28;20466;-91
2023/06/27 04:12:08;;;;;;;3.70;3.40;;;25.70;52.70;;;;;;4960370;28;20441;-91
2023/06/27 04:14:34;;;;;;;5.00;3.00;;;25.70;52.70;;;;;;4928548;28;20426;-90
2023/06/27 04:17:00;;;;;;;3.50;3.20;;;25.70;52.80;;;;;;4928957;28;20528;-90
2023/06/27 04:19:29;;;;;;;3.53;3.23;;;25.70;52.80;;;;;;4929167;28;20426;-90
2023/06/27 04:21:57;;;;;;;3.57;3.27;;;25.70;52.80;;;;;;4929361;28;20418;-91
2023/06/27 04:24:25;;;;;;;3.17;2.97;;;25.70;52.80;;;;;;4928499;28;20456;-89
2023/06/27 04:26:53;;;;;;;3.33;3.13;;;25.70;52.90;;;;;;4928269;28;20889;-90
2023/06/27 04:29:22;;;;;;;3.57;3.27;;;25.60;52.90;;;;;;4929178;28;20481;-90
2023/06/27 04:31:48;;;;;;;3.80;3.50;;;25.60;52.90;;;;;;4963727;28;20436;-89
2023/06/27 04:34:13;;;;;;;3.67;3.37;;;25.60;53.10;;;;;;4982947;28;20181;-90
2023/06/27 04:36:41;;;;;;;3.40;3.00;;;25.60;53.10;;;;;;4983983;28;20435;-89
2023/06/27 04:39:08;;;;;;;3.30;3.00;;;25.60;53.00;;;;;;4977413;28;20228;-90
2023/06/27 04:41:34;;;;;;;4.67;3.83;;;25.60;53.10;;;;;;4972070;28;20453;-90
2023/06/27 04:44:00;;;;;;;6.83;3.33;;;25.60;53.20;;;;;;4929090;28;20442;-90
2023/06/27 04:46:28;;;;;;;4.00;3.60;;;25.60;53.30;;;;;;4928671;28;20432;-90
2023/06/27 04:48:58;;;;;;;3.57;3.27;;;25.60;53.30;;;;;;4944282;28;20461;-90
2023/06/27 04:51:28;;;;;;;4.90;3.07;;;25.50;53.20;;;;;;4928508;28;20444;-90
2023/06/27 04:53:54;;;;;;;4.97;3.10;;;25.50;53.30;;;;;;4944091;28;20499;-91
2023/06/27 04:56:20;;;;;;;4.03;3.73;;;25.50;53.30;;;;;;4928239;28;20425;-91
2023/06/27 04:58:46;;;;;;;3.47;3.17;;;25.50;53.50;;;;;;4925047;29;20459;-90
2023/06/27 05:01:12;;;;;;;4.17;3.77;;;25.50;53.60;;;;;;4940233;28;20469;-90
2023/06/27 05:03:38;;;;;;;3.90;3.43;;;25.50;53.80;;;;;;4943849;28;20182;-90
2023/06/27 05:06:05;;;;;;;3.67;3.37;;;25.50;53.50;;;;;;4943931;28;20441;-90
2023/06/27 05:08:30;;;;;;;3.57;3.33;;;25.50;53.50;;;;;;4943796;28;20461;-90
2023/06/27 05:10:59;;;;;;;4.93;3.90;;;25.40;53.90;;;;;;4928571;28;20494;-90
2023/06/27 05:13:25;;;;;;;3.83;3.43;;;25.40;53.60;;;;;;4957523;28;20873;-90
2023/06/27 05:15:51;;;;;;;5.27;3.63;;;25.40;53.70;;;;;;4928026;28;20484;-90
2023/06/27 05:18:17;;;;;;;3.70;3.40;;;25.40;53.70;;;;;;4928356;28;20426;-89
2023/06/27 05:20:44;;;;;;;3.53;3.20;;;25.40;54.20;;;;;;4952874;28;20451;-92
2023/06/27 05:23:11;;;;;;;3.73;3.33;;;25.40;53.80;;;;;;4985878;28;20545;-88
2023/06/27 05:25:37;;;;;;;3.50;3.10;;;25.40;54.00;;;;;;5002096;28;20420;-90
2023/06/27 05:28:04;;;;;;;3.90;3.60;;;25.40;53.90;;;;;;4985565;28;20459;-88
2023/06/27 05:30:30;;;;;;;3.90;3.60;;;25.40;53.90;;;;;;4967701;28;20841;-89
2023/06/27 05:33:01;;;;;;;6.00;3.53;;;25.40;54.00;;;;;;4966438;28;20463;-89
2023/06/27 05:35:28;;;;;;;3.60;3.30;;;25.40;54.00;;;;;;4966582;28;20421;-88
2023/06/27 05:37:54;;;;;;;3.97;3.57;;;25.30;53.80;;;;;;4950575;28;20421;-88
2023/06/27 05:40:20;;;;;;;9.00;3.43;;;25.30;54.00;;;;;;4966123;28;20444;-88
2023/06/27 05:42:48;;;;;;;4.30;3.47;;;25.40;54.40;;;;;;4982230;28;20528;-89
2023/06/27 05:45:14;;;;;;;4.30;3.57;;;25.30;54.40;;;;;;4966136;28;21048;-89
2023/06/27 05:47:40;;;;;;;6.40;3.80;;;25.20;54.20;;;;;;4950353;28;20237;-88
2023/06/27 05:50:09;;;;;;;4.20;3.50;;;25.20;54.20;;;;;;4981842;28;20563;-88
2023/06/27 05:52:35;;;;;;;3.67;3.37;;;25.20;54.20;;;;;;4983019;28;20445;-88
2023/06/27 05:55:01;;;;;;;5.33;3.50;;;25.20;54.20;;;;;;4970349;28;20425;-89
2023/06/27 05:57:27;;;;;;;5.27;3.70;;;25.20;54.80;;;;;;4947773;28;20454;-91
2023/06/27 05:59:55;;;;;;;6.30;3.33;;;25.20;54.30;;;;;;4963470;28;20457;-89
2023/06/27 06:02:21;;;;;;;3.70;3.30;;;25.20;54.40;;;;;;4962529;28;20520;-88
2023/06/27 06:04:47;;;;;;;4.30;3.67;;;25.20;54.20;;;;;;4946653;28;20250;-89
2023/06/27 06:07:14;;;;;;;3.90;3.50;;;25.20;54.40;;;;;;4930834;28;20427;-90
2023/06/27 06:09:39;;;;;;;3.70;3.10;;;25.10;54.40;;;;;;4962241;28;20536;-89
2023/06/27 06:12:06;;;;;;;3.50;3.30;;;25.10;54.90;;;;;;4962553;28;20501;-89
2023/06/27 06:14:32;;;;;;;4.00;3.13;;;25.10;54.60;;;;;;4946370;28;20804;-90
2023/06/27 06:16:58;;;;;;;3.97;2.90;;;25.10;54.70;;;;;;4946183;28;20442;-90
2023/06/27 06:19:23;;;;;;;7.70;4.23;;;25.10;54.80;;;;;;4946444;28;20186;-89
2023/06/27 06:21:49;;;;;;;3.20;3.00;;;25.10;54.60;;;;;;4962219;28;20202;-89
2023/06/27 06:24:18;;;;;;;3.40;3.03;;;25.10;54.70;;;;;;4932824;28;20655;-89
2023/06/27 06:26:44;;;;;;;5.93;3.93;;;25.10;54.60;;;;;;4946648;28;20191;-89
2023/06/27 06:29:13;;;;;;;4.17;3.40;;;25.10;54.60;;;;;;4946113;28;20461;-89
2023/06/27 06:31:42;;;;;;;4.20;3.53;;;25.00;54.60;;;;;;4946334;28;20434;-89
2023/06/27 06:34:11;;;;;;;4.00;3.60;;;25.00;54.60;;;;;;4961102;28;20449;-89
2023/06/27 06:36:37;;;;;;;3.80;3.50;;;25.10;54.50;;;;;;4964434;28;21022;-88
2023/06/27 06:39:05;;;;;;;3.70;3.40;;;25.00;54.60;;;;;;4948878;28;20441;-89
2023/06/27 06:41:34;;;;;;;4.17;3.47;;;25.00;54.50;;;;;;4967424;28;20450;-89
2023/06/27 06:44:09;;;;;;;5.70;3.97;;;25.00;54.80;;;;;;4950679;28;20421;-88
2023/06/27 06:46:35;;;;;;;6.33;3.97;;;25.00;54.70;;;;;;4936344;28;21011;-88
2023/06/27 06:49:01;;;;;;;4.30;3.47;;;25.00;54.70;;;;;;4968720;28;20213;-89
2023/06/27 06:51:27;;;;;;;4.50;3.10;;;25.00;54.80;;;;;;4947953;28;20430;-89
2023/06/27 06:53:53;;;;;;;9.67;3.90;;;25.00;54.80;;;;;;4946293;28;20418;-88
2023/06/27 06:56:18;;;;;;;6.70;4.00;;;25.00;54.70;;;;;;4946286;28;20430;-88
2023/06/27 06:58:44;;;;;;;4.20;3.80;;;25.00;54.70;;;;;;4945827;28;20457;-89
2023/06/27 07:01:10;;;;;;;3.87;3.57;;;25.00;55.00;;;;;;4961678;28;20435;-88
2023/06/27 07:03:38;;;;;;;5.80;3.80;;;25.00;55.10;;;;;;4952432;28;21018;-80
2023/06/27 07:06:12;;;;;;;4.03;3.63;;;25.00;55.00;;;;;;4976402;28;20465;-81
2023/06/27 07:08:38;;;;;;;4.47;3.67;;;25.00;55.00;;;;;;4976608;28;20457;-80
2023/06/27 07:11:04;;;;;;;7.67;4.03;;;25.00;54.90;;;;;;4943549;28;20521;-81
2023/06/27 07:13:30;;;;;;;5.67;4.00;;;25.00;54.90;;;;;;4959605;28;20485;-80
2023/06/27 07:15:59;;;;;;;6.03;3.63;;;25.00;55.20;;;;;;4959377;28;20434;-80
2023/06/27 07:18:24;;;;;;;3.83;3.43;;;25.00;55.10;;;;;;4959564;28;20446;-80
2023/06/27 07:20:52;;;;;;;4.17;3.77;;;25.00;55.00;;;;;;4976374;28;20928;-78
2023/06/27 07:23:18;;;;;;;6.27;4.20;;;25.00;55.10;;;;;;4959496;28;20529;-79
2023/06/27 07:25:44;;;;;;;6.40;3.70;;;25.00;55.20;;;;;;4963277;28;20426;-78
2023/06/27 07:28:10;;;;;;;6.70;4.20;;;24.90;55.20;;;;;;4948467;28;20205;-78
2023/06/27 07:30:36;;;;;;;4.53;3.80;;;24.90;55.80;;;;;;4976095;28;20473;-79
2023/06/27 07:33:04;;;;;;;4.20;3.80;;;25.00;60.90;;;;;;4959352;28;20614;-78
2023/06/27 07:35:32;;;;;;;6.07;4.47;;;25.00;60.80;;;;;;4976117;28;20714;-78
2023/06/27 07:38:27;;;;;;;4.30;3.93;;;25.00;60.30;;;;;;4975817;28;20483;-78
2023/06/27 07:40:53;;;;;;;5.50;4.73;;;25.10;60.30;;;;;;4958634;28;20767;-78
2023/06/27 07:43:24;;;;;;;4.67;4.13;;;25.00;60.50;;;;;;4959347;28;20442;-78
2023/06/27 07:45:52;;;;;;;4.67;4.27;;;25.10;60.50;;;;;;4942935;28;20434;-78
2023/06/27 07:48:18;;;;;;;5.10;4.70;;;25.00;60.50;;;;;;4958752;28;20434;-78
2023/06/27 07:50:44;;;;;;;6.37;5.03;;;25.00;59.40;;;;;;4942881;28;20175;-78
2023/06/27 07:53:12;;;;;;;5.57;4.57;;;25.10;59.70;;;;;;4943158;28;20203;-78
2023/06/27 07:55:41;;;;;;;5.73;4.73;;;25.00;60.40;;;;;;4963593;28;20442;-78
2023/06/27 07:58:09;;;;;;;6.37;4.90;;;25.10;60.20;;;;;;4958635;28;20189;-78
2023/06/27 08:00:35;;;;;;;6.87;5.00;;;25.00;60.00;;;;;;4970751;28;20846;-79
2023/06/27 08:03:02;;;;;;;5.40;4.70;;;25.10;60.00;;;;;;4978334;28;20463;-78
2023/06/27 08:05:31;;;;;;;8.03;4.83;;;25.00;60.20;;;;;;4962245;28;20491;-77
2023/06/27 08:08:01;;;;;;;5.67;4.77;;;25.10;60.00;;;;;;4961849;28;20914;-78
2023/06/27 08:10:28;;;;;;;5.67;5.17;;;25.10;60.00;;;;;;4978101;28;20472;-79
2023/06/27 08:12:56;;;;;;;6.90;5.00;;;25.10;59.60;;;;;;4978518;28;20445;-78
2023/06/27 08:15:24;;;;;;;4.90;4.50;;;25.20;59.60;;;;;;4961877;28;20902;-78
2023/06/27 08:17:54;;;;;;;6.13;5.53;;;25.20;59.50;;;;;;4977976;28;20444;-78
2023/06/27 08:20:20;;;;;;;6.40;5.00;;;25.20;59.40;;;;;;4994886;28;20503;-79
2023/06/27 08:22:48;;;;;;;6.87;5.50;;;25.20;59.40;;;;;;4978117;28;20409;-78
2023/06/27 08:25:14;;;;;;;5.93;4.70;;;25.20;59.40;;;;;;4984410;28;20196;-79
2023/06/27 08:27:45;;;;;;;6.87;6.17;;;25.20;59.90;;;;;;4975540;28;20422;-78
2023/06/27 08:30:16;;;;;;;6.73;5.93;;;25.20;59.30;;;;;;4975628;28;20557;-79
2023/06/27 08:32:44;;;;;;;9.60;5.27;;;25.30;59.30;;;;;;4942493;28;20449;-78
2023/06/27 08:35:10;;;;;;;5.03;4.40;;;25.30;59.30;;;;;;4958593;28;20163;-78
2023/06/27 08:37:35;;;;;;;5.37;4.97;;;25.30;59.30;;;;;;4975630;28;20545;-78
2023/06/27 08:40:02;;;;;;;6.73;5.33;;;25.30;59.20;;;;;;4975200;28;20238;-79
2023/06/27 08:42:32;;;;;;;5.30;4.90;;;25.30;59.40;;;;;;4942080;28;20785;-78
2023/06/27 08:45:00;;;;;;;6.13;5.53;;;25.30;59.60;;;;;;4975469;28;20498;-78
2023/06/27 08:47:29;;;;;;;7.20;5.13;;;25.30;59.70;;;;;;4958661;28;20473;-78
2023/06/27 08:50:05;;;;;;;5.60;5.10;;;25.30;59.70;;;;;;4942477;28;20489;-78
2023/06/27 08:52:40;;;;;;;6.03;5.43;;;25.30;59.80;;;;;;4958407;28;20970;-78
2023/06/27 08:55:10;;;;;;;6.07;5.43;;;25.30;59.90;;;;;;4994485;28;20796;-78
2023/06/27 08:57:37;;;;;;;7.20;4.83;;;25.40;60.10;;;;;;4984830;28;20426;-78
2023/06/27 09:00:12;;;;;;;5.77;5.13;;;25.40;59.90;;;;;;5001049;28;20415;-79
2023/06/27 09:02:40;;;;;;;5.43;4.73;;;25.40;59.90;;;;;;5018470;28;20407;-79
2023/06/27 09:05:11;;;;;;;6.67;5.13;;;25.50;59.90;;;;;;4984325;28;20451;-78
2023/06/27 09:07:37;;;;;;;5.67;5.23;;;25.40;59.80;;;;;;5018051;28;20436;-78
2023/06/27 09:10:08;;;;;;;6.53;4.90;;;25.50;59.70;;;;;;5001225;28;20467;-78
2023/06/27 09:12:34;;;;;;;5.73;5.17;;;25.50;59.60;;;;;;5001184;28;20419;-78
2023/06/27 09:15:00;;;;;;;6.83;5.40;;;25.50;59.50;;;;;;5002782;28;20427;-79
2023/06/27 09:17:31;;;;;;;5.77;5.20;;;25.60;59.40;;;;;;5003226;28;20472;-78
2023/06/27 09:19:59;;;;;;;6.00;5.13;;;25.60;59.40;;;;;;5017981;28;20412;-78
2023/06/27 09:22:31;;;;;;;5.37;4.90;;;25.60;59.40;;;;;;4968217;28;20420;-78
2023/06/27 09:25:16;;;;;;;5.50;4.80;;;25.60;59.30;;;;;;4997295;28;20764;-79
2023/06/27 09:27:43;;;;;;;6.63;5.20;;;25.60;59.10;;;;;;5009885;28;20412;-79
2023/06/27 09:30:10;;;;;;;6.30;5.07;;;25.60;58.80;;;;;;4984225;28;20539;-78
2023/06/27 09:33:02;;;;;;;5.70;5.10;;;25.70;58.70;;;;;;5018022;28;20424;-78
2023/06/27 09:35:31;;;;;;;6.03;5.40;;;25.70;58.60;;;;;;5014939;28;20466;-78
2023/06/27 09:38:07;;;;;;;7.40;4.87;;;25.70;58.60;;;;;;5000492;28;20470;-78
2023/06/27 09:40:36;;;;;;;5.80;5.30;;;25.70;58.60;;;;;;5017683;28;20493;-78
2023/06/27 09:43:05;;;;;;;5.90;5.37;;;25.60;58.60;;;;;;5000337;28;20842;-78
2023/06/27 09:45:36;;;;;;;5.13;4.63;;;25.70;58.60;;;;;;5017561;28;20443;-79
2023/06/27 09:48:09;;;;;;;5.40;4.60;;;25.70;58.70;;;;;;5000463;28;20436;-79
2023/06/27 09:50:41;;;;;;;6.40;5.07;;;25.70;59.40;;;;;;5000460;28;20452;-79
2023/06/27 09:53:10;;;;;;;5.90;5.13;;;25.70;58.80;;;;;;5017366;28;21090;-79
2023/06/27 09:55:45;;;;;;;6.10;5.60;;;25.70;58.60;;;;;;5003457;28;20490;-78
2023/06/27 09:58:13;;;;;;;5.97;5.30;;;25.80;58.60;;;;;;4997682;28;20421;-79
2023/06/27 10:00:41;;;;;;;5.70;5.20;;;25.80;58.60;;;;;;4980000;28;20941;-79
2023/06/27 10:03:10;;;;;;;5.67;4.73;;;25.80;58.70;;;;;;4997211;28;20415;-78
2023/06/27 10:05:36;;;;;;;4.70;4.40;;;25.80;58.60;;;;;;4964348;28;20429;-79
2023/06/27 10:08:01;;;;;;;4.97;4.67;;;25.80;58.60;;;;;;4947473;28;20469;-78
2023/06/27 10:10:29;;;;;;;5.50;5.00;;;25.90;58.40;;;;;;4997276;28;20289;-79
2023/06/27 10:12:59;;;;;;;5.70;5.00;;;25.80;58.30;;;;;;4980438;28;20285;-78
2023/06/27 10:15:29;;;;;;;6.00;5.00;;;26.00;58.40;;;;;;4997299;28;20472;-79
2023/06/27 10:17:57;;;;;;;4.83;4.50;;;25.90;58.20;;;;;;4997350;28;20428;-79
2023/06/27 10:20:28;;;;;;;4.80;4.33;;;25.90;58.10;;;;;;4997106;28;20528;-79
2023/06/27 10:22:55;;;;;;;5.40;5.00;;;26.00;58.10;;;;;;4964173;28;20444;-78
2023/06/27 10:25:23;;;;;;;6.87;5.23;;;25.90;58.00;;;;;;4991493;28;20733;-79
2023/06/27 10:27:49;;;;;;;6.50;5.20;;;26.00;58.10;;;;;;4999428;28;20431;-78
2023/06/27 10:30:20;;;;;;;5.50;5.10;;;26.10;57.80;;;;;;5016657;28;20475;-79
2023/06/27 10:32:49;;;;;;;5.77;4.87;;;26.00;57.70;;;;;;4999198;28;20444;-78
2023/06/27 10:35:27;;;;;;;4.73;4.40;;;26.00;57.60;;;;;;4999341;28;20492;-78
2023/06/27 10:38:14;;;;;;;4.87;4.30;;;26.10;57.70;;;;;;5016664;28;20408;-78
2023/06/27 10:43:38;;;;;;;5.07;4.67;;;26.10;57.60;;;;;;4999337;28;20486;-79
2023/06/27 10:46:07;;;;;;;4.90;4.50;;;26.10;57.60;;;;;;4999368;28;20456;-78
2023/06/27 10:48:34;;;;;;;6.20;5.20;;;26.10;57.40;;;;;;4983070;28;20443;-79
2023/06/27 10:51:09;;;;;;;4.43;4.13;;;26.10;57.30;;;;;;4998986;28;20519;-78
2023/06/27 10:53:42;;;;;;;4.87;4.20;;;26.20;57.30;;;;;;5016428;28;20431;-79
2023/06/27 10:56:16;;;;;;;4.77;4.40;;;26.10;57.30;;;;;;4985033;28;20446;-79
2023/06/27 10:58:46;;;;;;;7.40;4.47;;;26.20;57.40;;;;;;4999198;28;20491;-79
2023/06/27 11:01:24;;;;;;;5.83;5.43;;;26.30;57.60;;;;;;4996565;28;20504;-78
2023/06/27 11:03:56;;;;;;;4.67;4.23;;;26.30;57.60;;;;;;4979065;28;20988;-78
2023/06/27 11:06:39;;;;;;;5.47;5.17;;;26.20;57.40;;;;;;4996227;28;20429;-79
2023/06/27 11:09:06;;;;;;;4.63;4.20;;;26.20;57.40;;;;;;4979393;28;20449;-79
2023/06/27 11:11:34;;;;;;;4.90;4.60;;;26.30;57.40;;;;;;4979617;28;20432;-79
2023/06/27 11:14:05;;;;;;;5.17;4.67;;;26.30;57.40;;;;;;4979083;28;20527;-79
2023/06/27 11:16:34;;;;;;;5.40;5.00;;;26.30;57.40;;;;;;4996155;28;20432;-78
2023/06/27 11:19:01;;;;;;;5.10;4.70;;;26.30;57.40;;;;;;4996015;28;20443;-79
2023/06/27 11:21:30;;;;;;;4.60;4.30;;;26.40;57.50;;;;;;4996210;28;20500;-79
2023/06/27 11:24:00;;;;;;;5.00;4.60;;;26.30;57.50;;;;;;4995711;28;20449;-78
2023/06/27 11:26:29;;;;;;;5.03;4.60;;;26.30;57.50;;;;;;4998042;28;20420;-78
2023/06/27 11:29:02;;;;;;;6.17;4.93;;;26.40;57.50;;;;;;5015278;28;20468;-79
2023/06/27 11:31:31;;;;;;;5.47;5.07;;;26.40;57.60;;;;;;5015550;28;20432;-78
2023/06/27 11:33:59;;;;;;;5.30;4.90;;;26.40;57.50;;;;;;5015540;28;20419;-79
2023/06/27 11:36:29;;;;;;;5.77;4.77;;;26.30;57.50;;;;;;4998611;28;20443;-79
2023/06/27 11:38:58;;;;;;;5.00;4.50;;;26.40;57.50;;;;;;5015275;28;20807;-79
2023/06/27 11:41:26;;;;;;;5.10;4.80;;;26.50;57.50;;;;;;5015370;28;20439;-79
2023/06/27 11:43:53;;;;;;;5.23;4.83;;;26.50;57.50;;;;;;4981784;28;20443;-79
2023/06/27 11:46:20;;;;;;;5.40;5.00;;;26.40;57.40;;;;;;4998046;28;20550;-79
2023/06/27 11:48:47;;;;;;;5.10;4.70;;;26.50;57.50;;;;;;4965842;28;20486;-79
2023/06/27 11:51:15;;;;;;;5.13;4.73;;;26.40;57.50;;;;;;4998224;28;20428;-80
2023/06/27 11:53:49;;;;;;;5.30;4.80;;;26.50;57.50;;;;;;5014948;28;20413;-79
2023/06/27 11:56:20;;;;;;;6.17;5.77;;;26.40;57.50;;;;;;4978899;28;20212;-78
2023/06/27 11:58:47;;;;;;;6.17;4.77;;;26.40;57.40;;;;;;4998053;28;20467;-79
2023/06/27 12:01:16;;;;;;;5.37;4.97;;;26.50;57.50;;;;;;4981853;28;20443;-79
2023/06/27 12:03:47;;;;;;;5.70;5.20;;;26.50;57.90;;;;;;4981459;28;20909;-79
2023/06/27 12:06:26;;;;;;;5.30;4.80;;;26.50;57.30;;;;;;4998032;28;20444;-79
2023/06/27 12:08:56;;;;;;;5.13;4.73;;;26.60;57.40;;;;;;4997977;28;20863;-78
2023/06/27 12:11:27;;;;;;;5.23;4.77;;;26.60;57.40;;;;;;5014793;28;20447;-78
2023/06/27 12:13:55;;;;;;;5.13;4.60;;;26.60;57.40;;;;;;5014615;28;20420;-79
2023/06/27 12:16:29;;;;;;;5.43;5.10;;;26.60;57.40;;;;;;4998168;28;20428;-78
2023/06/27 12:19:11;;;;;;;5.40;5.00;;;26.60;57.40;;;;;;5014466;28;20475;-82
2023/06/27 12:21:37;;;;;;;5.53;5.10;;;26.60;57.30;;;;;;4997718;28;20947;-80
2023/06/27 12:24:04;;;;;;;6.20;5.67;;;26.70;57.20;;;;;;4980509;28;20431;-81
2023/06/27 12:26:30;;;;;;;4.40;4.10;;;26.70;57.20;;;;;;4995012;28;20444;-81
2023/06/27 12:28:57;;;;;;;4.83;4.50;;;26.70;57.30;;;;;;4994526;28;20456;-80
2023/06/27 12:31:23;;;;;;;5.67;5.17;;;26.70;57.20;;;;;;4977364;28;20449;-81
2023/06/27 12:33:51;;;;;;;5.70;5.30;;;26.70;57.00;;;;;;4995007;28;20417;-81
2023/06/27 12:36:21;;;;;;;6.10;4.63;;;26.70;57.10;;;;;;4977859;28;20416;-81
2023/06/27 12:38:53;;;;;;;9.37;5.30;;;26.80;57.10;;;;;;4961888;28;20452;-81
2023/06/27 12:41:21;;;;;;;5.17;4.87;;;26.80;57.10;;;;;;4995125;28;20500;-81
2023/06/27 12:43:47;;;;;;;5.43;4.33;;;26.70;57.10;;;;;;4961700;28;20437;-81
2023/06/27 12:46:16;;;;;;;4.90;4.60;;;26.80;57.00;;;;;;4994833;28;20415;-81
2023/06/27 12:48:45;;;;;;;4.70;4.30;;;26.80;56.70;;;;;;4994979;28;20879;-80
2023/06/27 12:51:11;;;;;;;5.30;4.80;;;26.80;56.80;;;;;;4977819;28;20740;-81
2023/06/27 12:53:40;;;;;;;5.23;4.73;;;26.90;56.70;;;;;;4995186;28;20454;-80
2023/06/27 12:56:08;;;;;;;5.60;5.17;;;26.90;56.70;;;;;;4979053;28;20420;-81
2023/06/27 12:58:39;;;;;;;4.93;4.53;;;26.80;56.60;;;;;;5014578;28;20169;-81